sensor_id;sensor_type;location;lat;lon;timestamp;temperature;humidity
43858;DHT22;29507;51.284;5.758;2023-08-30T00:00:17;12.30;99.90
43858;DHT22;29507;51.284;5.758;2023-08-30T00:02:47;12.20;99.90
43858;DHT22;29507;51.284;5.758;2023-08-30T00:05:13;12.00;99.90
43858;DHT22;29507;51.284;5.758;2023-08-30T00:07:39;11.90;99.90
43858;DHT22;29507;51.284;5.758;2023-08-30T00:10:06;11.90;99.90
43858;DHT22;29507;51.284;5.758;2023-08-30T00:12:33;11.90;99.90
43858;DHT22;29507;51.284;5.758;2023-08-30T00:14:59;12.00;99.90
43858;DHT22;29507;51.284;5.758;2023-08-30T00:17:25;12.10;99.90
43858;DHT22;29507;51.284;5.758;2023-08-30T00:19:51;12.20;99.90
43858;DHT22;29507;51.284;5.758;2023-08-30T00:22:18;12.30;99.90
43858;DHT22;29507;51.284;5.758;2023-08-30T00:24:44;12.40;99.90
43858;DHT22;29507;51.284;5.758;2023-08-30T00:27:11;12.50;99.90
43858;DHT22;29507;51.284;5.758;2023-08-30T00:29:37;12.50;99.90
43858;DHT22;29507;51.284;5.758;2023-08-30T00:32:03;12.50;99.90
43858;DHT22;29507;51.284;5.758;2023-08-30T00:34:29;12.60;99.90
43858;DHT22;29507;51.284;5.758;2023-08-30T00:36:54;12.60;99.90
43858;DHT22;29507;51.284;5.758;2023-08-30T00:39:20;12.70;99.90
43858;DHT22;29507;51.284;5.758;2023-08-30T00:41:45;12.70;99.90
43858;DHT22;29507;51.284;5.758;2023-08-30T00:44:11;12.70;99.90
43858;DHT22;29507;51.284;5.758;2023-08-30T00:46:37;12.70;99.90
43858;DHT22;29507;51.284;5.758;2023-08-30T00:49:03;12.80;99.90
43858;DHT22;29507;51.284;5.758;2023-08-30T00:51:30;12.80;99.90
43858;DHT22;29507;51.284;5.758;2023-08-30T00:53:56;12.80;99.90
43858;DHT22;29507;51.284;5.758;2023-08-30T00:56:22;12.80;99.90
43858;DHT22;29507;51.284;5.758;2023-08-30T00:58:49;12.80;99.90
43858;DHT22;29507;51.284;5.758;2023-08-30T01:01:16;12.70;99.90
43858;DHT22;29507;51.284;5.758;2023-08-30T01:03:42;12.70;99.90
43858;DHT22;29507;51.284;5.758;2023-08-30T01:06:08;12.70;99.90
43858;DHT22;29507;51.284;5.758;2023-08-30T01:08:35;12.70;99.90
43858;DHT22;29507;51.284;5.758;2023-08-30T01:11:22;12.70;99.90
43858;DHT22;29507;51.284;5.758;2023-08-30T01:14:00;12.60;99.90
43858;DHT22;29507;51.284;5.758;2023-08-30T01:16:26;12.60;99.90
43858;DHT22;29507;51.284;5.758;2023-08-30T01:18:56;12.60;99.90
43858;DHT22;29507;51.284;5.758;2023-08-30T01:21:47;12.60;99.90
43858;DHT22;29507;51.284;5.758;2023-08-30T01:24:09;12.60;99.90
43858;DHT22;29507;51.284;5.758;2023-08-30T01:29:24;12.50;99.90
43858;DHT22;29507;51.284;5.758;2023-08-30T01:31:51;12.30;99.90
43858;DHT22;29507;51.284;5.758;2023-08-30T01:34:17;12.20;99.90
43858;DHT22;29507;51.284;5.758;2023-08-30T01:36:44;12.10;99.90
43858;DHT22;29507;51.284;5.758;2023-08-30T01:39:14;12.00;99.90
43858;DHT22;29507;51.284;5.758;2023-08-30T01:41:39;11.90;99.90
43858;DHT22;29507;51.284;5.758;2023-08-30T01:44:06;11.80;99.90
43858;DHT22;29507;51.284;5.758;2023-08-30T01:46:33;11.70;99.90
43858;DHT22;29507;51.284;5.758;2023-08-30T01:49:02;11.60;99.90
43858;DHT22;29507;51.284;5.758;2023-08-30T01:51:28;11.50;99.90
43858;DHT22;29507;51.284;5.758;2023-08-30T01:53:56;11.40;99.90
43858;DHT22;29507;51.284;5.758;2023-08-30T01:56:22;11.30;99.90
43858;DHT22;29507;51.284;5.758;2023-08-30T01:58:48;11.30;99.90
43858;DHT22;29507;51.284;5.758;2023-08-30T02:01:15;11.40;99.90
43858;DHT22;29507;51.284;5.758;2023-08-30T02:03:43;11.40;99.90
43858;DHT22;29507;51.284;5.758;2023-08-30T02:06:14;11.40;99.90
43858;DHT22;29507;51.284;5.758;2023-08-30T02:11:19;11.70;99.90
43858;DHT22;29507;51.284;5.758;2023-08-30T02:13:46;11.80;99.90
43858;DHT22;29507;51.284;5.758;2023-08-30T02:16:13;11.90;99.90
43858;DHT22;29507;51.284;5.758;2023-08-30T02:18:40;12.00;99.90
43858;DHT22;29507;51.284;5.758;2023-08-30T02:21:06;12.00;99.90
43858;DHT22;29507;51.284;5.758;2023-08-30T02:23:32;12.10;99.90
43858;DHT22;29507;51.284;5.758;2023-08-30T02:25:57;12.10;99.90
43858;DHT22;29507;51.284;5.758;2023-08-30T02:28:23;12.10;99.90
43858;DHT22;29507;51.284;5.758;2023-08-30T02:30:52;12.20;99.90
43858;DHT22;29507;51.284;5.758;2023-08-30T02:33:18;12.20;99.90
43858;DHT22;29507;51.284;5.758;2023-08-30T02:35:43;12.30;99.90
43858;DHT22;29507;51.284;5.758;2023-08-30T02:38:09;12.30;99.90
43858;DHT22;29507;51.284;5.758;2023-08-30T02:40:35;12.30;99.90
43858;DHT22;29507;51.284;5.758;2023-08-30T02:43:00;12.40;99.90
43858;DHT22;29507;51.284;5.758;2023-08-30T02:45:26;12.40;99.90
43858;DHT22;29507;51.284;5.758;2023-08-30T02:47:55;12.40;99.90
43858;DHT22;29507;51.284;5.758;2023-08-30T02:50:21;12.50;99.90
43858;DHT22;29507;51.284;5.758;2023-08-30T02:52:47;12.40;99.90
43858;DHT22;29507;51.284;5.758;2023-08-30T02:55:13;12.50;99.90
43858;DHT22;29507;51.284;5.758;2023-08-30T02:57:38;12.50;99.90
43858;DHT22;29507;51.284;5.758;2023-08-30T03:00:04;12.50;99.90
43858;DHT22;29507;51.284;5.758;2023-08-30T03:02:31;12.50;99.90
43858;DHT22;29507;51.284;5.758;2023-08-30T03:04:58;12.50;99.90
43858;DHT22;29507;51.284;5.758;2023-08-30T03:07:25;12.50;99.90
43858;DHT22;29507;51.284;5.758;2023-08-30T03:09:54;12.50;99.90
43858;DHT22;29507;51.284;5.758;2023-08-30T03:12:20;12.40;99.90
43858;DHT22;29507;51.284;5.758;2023-08-30T03:14:46;12.40;99.90
43858;DHT22;29507;51.284;5.758;2023-08-30T03:17:12;12.40;99.90
43858;DHT22;29507;51.284;5.758;2023-08-30T03:19:37;12.40;99.90
43858;DHT22;29507;51.284;5.758;2023-08-30T03:22:03;12.50;99.90
43858;DHT22;29507;51.284;5.758;2023-08-30T03:24:29;12.50;99.90
43858;DHT22;29507;51.284;5.758;2023-08-30T03:26:54;12.50;99.90
43858;DHT22;29507;51.284;5.758;2023-08-30T03:29:20;12.60;99.90
43858;DHT22;29507;51.284;5.758;2023-08-30T03:31:45;12.50;99.90
43858;DHT22;29507;51.284;5.758;2023-08-30T03:34:11;12.60;99.90
43858;DHT22;29507;51.284;5.758;2023-08-30T03:36:37;12.50;99.90
43858;DHT22;29507;51.284;5.758;2023-08-30T03:39:03;12.60;99.90
43858;DHT22;29507;51.284;5.758;2023-08-30T03:41:29;12.60;99.90
43858;DHT22;29507;51.284;5.758;2023-08-30T03:43:54;12.60;99.90
43858;DHT22;29507;51.284;5.758;2023-08-30T03:46:20;12.60;99.90
43858;DHT22;29507;51.284;5.758;2023-08-30T03:48:46;12.60;99.90
43858;DHT22;29507;51.284;5.758;2023-08-30T03:51:12;12.60;99.90
43858;DHT22;29507;51.284;5.758;2023-08-30T03:53:38;12.50;99.90
43858;DHT22;29507;51.284;5.758;2023-08-30T03:56:04;12.60;99.90
43858;DHT22;29507;51.284;5.758;2023-08-30T03:58:29;12.60;99.90
43858;DHT22;29507;51.284;5.758;2023-08-30T04:00:57;12.50;99.90
43858;DHT22;29507;51.284;5.758;2023-08-30T04:03:23;12.50;99.90
43858;DHT22;29507;51.284;5.758;2023-08-30T04:05:57;12.50;99.90
43858;DHT22;29507;51.284;5.758;2023-08-30T04:08:23;12.50;99.90
43858;DHT22;29507;51.284;5.758;2023-08-30T04:10:52;12.50;99.90
43858;DHT22;29507;51.284;5.758;2023-08-30T04:13:17;12.50;99.90
43858;DHT22;29507;51.284;5.758;2023-08-30T04:15:43;12.50;99.90
43858;DHT22;29507;51.284;5.758;2023-08-30T04:18:09;12.50;99.90
43858;DHT22;29507;51.284;5.758;2023-08-30T04:20:35;12.50;99.90
43858;DHT22;29507;51.284;5.758;2023-08-30T04:23:01;12.60;99.90
43858;DHT22;29507;51.284;5.758;2023-08-30T04:25:31;12.50;99.90
43858;DHT22;29507;51.284;5.758;2023-08-30T04:27:59;12.50;99.90
43858;DHT22;29507;51.284;5.758;2023-08-30T04:30:25;12.50;99.90
43858;DHT22;29507;51.284;5.758;2023-08-30T04:32:50;12.40;99.90
43858;DHT22;29507;51.284;5.758;2023-08-30T04:35:16;12.40;99.90
43858;DHT22;29507;51.284;5.758;2023-08-30T04:37:42;12.40;99.90
43858;DHT22;29507;51.284;5.758;2023-08-30T04:40:08;12.40;99.90
43858;DHT22;29507;51.284;5.758;2023-08-30T04:42:35;12.40;99.90
43858;DHT22;29507;51.284;5.758;2023-08-30T04:45:01;12.40;99.90
43858;DHT22;29507;51.284;5.758;2023-08-30T04:47:29;12.40;99.90
43858;DHT22;29507;51.284;5.758;2023-08-30T04:49:54;12.40;99.90
43858;DHT22;29507;51.284;5.758;2023-08-30T04:52:20;12.40;99.90
43858;DHT22;29507;51.284;5.758;2023-08-30T04:54:46;12.30;99.90
43858;DHT22;29507;51.284;5.758;2023-08-30T04:57:12;12.20;99.90
43858;DHT22;29507;51.284;5.758;2023-08-30T04:59:44;12.10;99.90
43858;DHT22;29507;51.284;5.758;2023-08-30T05:02:10;12.10;99.90
43858;DHT22;29507;51.284;5.758;2023-08-30T05:04:36;12.10;99.90
43858;DHT22;29507;51.284;5.758;2023-08-30T05:07:02;12.10;99.90
43858;DHT22;29507;51.284;5.758;2023-08-30T05:09:29;12.10;99.90
43858;DHT22;29507;51.284;5.758;2023-08-30T05:11:55;12.20;99.90
43858;DHT22;29507;51.284;5.758;2023-08-30T05:14:21;12.40;99.90
43858;DHT22;29507;51.284;5.758;2023-08-30T05:16:48;12.40;99.90
43858;DHT22;29507;51.284;5.758;2023-08-30T05:19:13;12.50;99.90
43858;DHT22;29507;51.284;5.758;2023-08-30T05:21:39;12.60;99.90
43858;DHT22;29507;51.284;5.758;2023-08-30T05:24:05;12.70;99.90
43858;DHT22;29507;51.284;5.758;2023-08-30T05:26:34;12.80;99.90
43858;DHT22;29507;51.284;5.758;2023-08-30T05:28:59;12.90;99.90
43858;DHT22;29507;51.284;5.758;2023-08-30T05:31:25;13.00;99.90
43858;DHT22;29507;51.284;5.758;2023-08-30T05:33:51;13.00;99.90
43858;DHT22;29507;51.284;5.758;2023-08-30T05:36:17;13.10;99.90
43858;DHT22;29507;51.284;5.758;2023-08-30T05:38:43;13.20;99.90
43858;DHT22;29507;51.284;5.758;2023-08-30T05:41:09;13.30;99.90
43858;DHT22;29507;51.284;5.758;2023-08-30T05:43:34;13.40;99.90
43858;DHT22;29507;51.284;5.758;2023-08-30T05:46:00;13.50;99.90
43858;DHT22;29507;51.284;5.758;2023-08-30T05:48:29;13.60;99.90
43858;DHT22;29507;51.284;5.758;2023-08-30T05:50:56;13.70;99.90
43858;DHT22;29507;51.284;5.758;2023-08-30T05:53:22;13.80;99.90
43858;DHT22;29507;51.284;5.758;2023-08-30T05:55:48;13.90;99.90
43858;DHT22;29507;51.284;5.758;2023-08-30T05:58:13;14.00;99.90
43858;DHT22;29507;51.284;5.758;2023-08-30T06:00:40;14.10;99.90
43858;DHT22;29507;51.284;5.758;2023-08-30T06:03:06;14.20;99.90
43858;DHT22;29507;51.284;5.758;2023-08-30T06:05:32;14.20;99.90
43858;DHT22;29507;51.284;5.758;2023-08-30T06:07:58;14.30;99.90
43858;DHT22;29507;51.284;5.758;2023-08-30T06:10:24;14.30;99.90
43858;DHT22;29507;51.284;5.758;2023-08-30T06:12:49;14.40;99.90
43858;DHT22;29507;51.284;5.758;2023-08-30T06:15:15;14.40;99.90
43858;DHT22;29507;51.284;5.758;2023-08-30T06:17:41;14.40;99.90
43858;DHT22;29507;51.284;5.758;2023-08-30T06:20:07;14.50;99.90
43858;DHT22;29507;51.284;5.758;2023-08-30T06:22:32;14.50;99.90
43858;DHT22;29507;51.284;5.758;2023-08-30T06:24:58;14.60;99.90
43858;DHT22;29507;51.284;5.758;2023-08-30T06:27:24;14.60;99.90
43858;DHT22;29507;51.284;5.758;2023-08-30T06:29:49;14.70;99.90
43858;DHT22;29507;51.284;5.758;2023-08-30T06:32:16;14.80;99.90
43858;DHT22;29507;51.284;5.758;2023-08-30T06:34:42;14.90;99.90
43858;DHT22;29507;51.284;5.758;2023-08-30T06:37:08;15.00;99.90
43858;DHT22;29507;51.284;5.758;2023-08-30T06:39:34;15.00;99.90
43858;DHT22;29507;51.284;5.758;2023-08-30T06:42:03;15.20;99.90
43858;DHT22;29507;51.284;5.758;2023-08-30T06:44:29;15.40;99.90
43858;DHT22;29507;51.284;5.758;2023-08-30T06:46:56;15.70;99.90
43858;DHT22;29507;51.284;5.758;2023-08-30T06:49:22;16.00;99.90
43858;DHT22;29507;51.284;5.758;2023-08-30T06:51:48;16.30;99.90
43858;DHT22;29507;51.284;5.758;2023-08-30T06:54:13;16.20;99.90
43858;DHT22;29507;51.284;5.758;2023-08-30T06:56:39;16.00;99.90
43858;DHT22;29507;51.284;5.758;2023-08-30T06:59:05;16.00;99.90
43858;DHT22;29507;51.284;5.758;2023-08-30T07:01:30;15.80;99.90
43858;DHT22;29507;51.284;5.758;2023-08-30T07:03:56;15.60;99.90
43858;DHT22;29507;51.284;5.758;2023-08-30T07:06:22;15.40;99.90
43858;DHT22;29507;51.284;5.758;2023-08-30T07:08:48;15.20;99.90
43858;DHT22;29507;51.284;5.758;2023-08-30T07:11:14;14.90;99.90
43858;DHT22;29507;51.284;5.758;2023-08-30T07:13:39;14.70;99.90
43858;DHT22;29507;51.284;5.758;2023-08-30T07:16:05;14.50;99.90
43858;DHT22;29507;51.284;5.758;2023-08-30T07:18:31;14.30;99.90
43858;DHT22;29507;51.284;5.758;2023-08-30T07:20:56;14.20;99.90
43858;DHT22;29507;51.284;5.758;2023-08-30T07:23:22;14.30;99.90
43858;DHT22;29507;51.284;5.758;2023-08-30T07:25:48;14.20;99.90
43858;DHT22;29507;51.284;5.758;2023-08-30T07:28:13;14.10;99.90
43858;DHT22;29507;51.284;5.758;2023-08-30T07:30:39;14.10;99.90
43858;DHT22;29507;51.284;5.758;2023-08-30T07:33:04;14.00;99.90
43858;DHT22;29507;51.284;5.758;2023-08-30T07:35:31;13.80;99.90
43858;DHT22;29507;51.284;5.758;2023-08-30T07:37:58;13.70;99.90
43858;DHT22;29507;51.284;5.758;2023-08-30T07:40:23;13.60;99.90
43858;DHT22;29507;51.284;5.758;2023-08-30T07:42:53;13.50;99.90
43858;DHT22;29507;51.284;5.758;2023-08-30T07:45:19;13.70;99.90
43858;DHT22;29507;51.284;5.758;2023-08-30T07:47:45;13.80;99.90
43858;DHT22;29507;51.284;5.758;2023-08-30T07:50:10;13.90;99.90
43858;DHT22;29507;51.284;5.758;2023-08-30T07:52:36;14.00;99.90
43858;DHT22;29507;51.284;5.758;2023-08-30T07:55:02;14.10;99.90
43858;DHT22;29507;51.284;5.758;2023-08-30T07:57:27;14.20;99.90
43858;DHT22;29507;51.284;5.758;2023-08-30T07:59:53;14.20;99.90
43858;DHT22;29507;51.284;5.758;2023-08-30T08:02:19;14.20;99.90
43858;DHT22;29507;51.284;5.758;2023-08-30T08:04:44;14.30;99.90
43858;DHT22;29507;51.284;5.758;2023-08-30T08:07:10;14.30;99.90
43858;DHT22;29507;51.284;5.758;2023-08-30T08:09:36;14.30;99.90
43858;DHT22;29507;51.284;5.758;2023-08-30T08:12:03;14.30;99.90
43858;DHT22;29507;51.284;5.758;2023-08-30T08:14:28;14.20;99.90
43858;DHT22;29507;51.284;5.758;2023-08-30T08:16:54;14.10;99.90
43858;DHT22;29507;51.284;5.758;2023-08-30T08:19:20;13.90;99.90
43858;DHT22;29507;51.284;5.758;2023-08-30T08:21:47;13.90;99.90
43858;DHT22;29507;51.284;5.758;2023-08-30T08:24:12;13.80;99.90
43858;DHT22;29507;51.284;5.758;2023-08-30T08:26:38;13.70;99.90
43858;DHT22;29507;51.284;5.758;2023-08-30T08:29:04;13.60;99.90
43858;DHT22;29507;51.284;5.758;2023-08-30T08:31:29;13.60;99.90
43858;DHT22;29507;51.284;5.758;2023-08-30T08:34:11;13.60;99.90
43858;DHT22;29507;51.284;5.758;2023-08-30T08:36:42;13.50;99.90
43858;DHT22;29507;51.284;5.758;2023-08-30T08:39:08;13.50;99.90
43858;DHT22;29507;51.284;5.758;2023-08-30T08:41:42;13.40;99.90
43858;DHT22;29507;51.284;5.758;2023-08-30T08:44:08;13.40;99.90
43858;DHT22;29507;51.284;5.758;2023-08-30T08:46:35;13.40;99.90
43858;DHT22;29507;51.284;5.758;2023-08-30T08:49:12;13.40;99.90
43858;DHT22;29507;51.284;5.758;2023-08-30T08:51:39;13.50;99.90
43858;DHT22;29507;51.284;5.758;2023-08-30T08:54:05;13.50;99.90
43858;DHT22;29507;51.284;5.758;2023-08-30T08:56:32;13.60;99.90
43858;DHT22;29507;51.284;5.758;2023-08-30T08:58:59;13.70;99.90
43858;DHT22;29507;51.284;5.758;2023-08-30T09:01:26;13.70;99.90
43858;DHT22;29507;51.284;5.758;2023-08-30T09:03:52;13.80;99.90
43858;DHT22;29507;51.284;5.758;2023-08-30T09:06:18;13.90;99.90
43858;DHT22;29507;51.284;5.758;2023-08-30T09:08:44;13.90;99.90
43858;DHT22;29507;51.284;5.758;2023-08-30T09:11:09;14.00;99.90
43858;DHT22;29507;51.284;5.758;2023-08-30T09:13:35;14.00;99.90
43858;DHT22;29507;51.284;5.758;2023-08-30T09:16:01;14.10;99.90
43858;DHT22;29507;51.284;5.758;2023-08-30T09:18:28;14.10;99.90
43858;DHT22;29507;51.284;5.758;2023-08-30T09:21:05;14.20;99.90
43858;DHT22;29507;51.284;5.758;2023-08-30T09:23:31;14.30;99.90
43858;DHT22;29507;51.284;5.758;2023-08-30T09:25:56;14.20;99.90
43858;DHT22;29507;51.284;5.758;2023-08-30T09:28:22;14.10;99.90
43858;DHT22;29507;51.284;5.758;2023-08-30T09:30:51;14.10;99.90
43858;DHT22;29507;51.284;5.758;2023-08-30T09:33:23;14.00;99.90
43858;DHT22;29507;51.284;5.758;2023-08-30T09:35:54;13.90;99.90
43858;DHT22;29507;51.284;5.758;2023-08-30T09:38:20;13.90;99.90
43858;DHT22;29507;51.284;5.758;2023-08-30T09:40:47;13.90;99.90
43858;DHT22;29507;51.284;5.758;2023-08-30T09:43:13;13.90;99.90
43858;DHT22;29507;51.284;5.758;2023-08-30T09:45:40;14.00;99.90
43858;DHT22;29507;51.284;5.758;2023-08-30T09:48:07;14.10;99.90
43858;DHT22;29507;51.284;5.758;2023-08-30T09:50:34;14.10;99.90
43858;DHT22;29507;51.284;5.758;2023-08-30T09:53:06;14.20;99.90
43858;DHT22;29507;51.284;5.758;2023-08-30T09:55:33;14.30;99.90
43858;DHT22;29507;51.284;5.758;2023-08-30T09:58:01;14.30;99.90
43858;DHT22;29507;51.284;5.758;2023-08-30T10:00:28;14.40;99.90
43858;DHT22;29507;51.284;5.758;2023-08-30T10:02:54;14.50;99.90
43858;DHT22;29507;51.284;5.758;2023-08-30T10:05:20;14.50;99.90
43858;DHT22;29507;51.284;5.758;2023-08-30T10:07:47;14.60;99.90
43858;DHT22;29507;51.284;5.758;2023-08-30T10:10:13;14.70;99.90
43858;DHT22;29507;51.284;5.758;2023-08-30T10:12:39;14.80;99.90
43858;DHT22;29507;51.284;5.758;2023-08-30T10:15:06;14.90;99.90
43858;DHT22;29507;51.284;5.758;2023-08-30T10:17:32;14.90;99.90
43858;DHT22;29507;51.284;5.758;2023-08-30T10:20:04;14.80;99.90
43858;DHT22;29507;51.284;5.758;2023-08-30T10:22:33;14.90;99.90
43858;DHT22;29507;51.284;5.758;2023-08-30T10:25:06;14.90;99.90
43858;DHT22;29507;51.284;5.758;2023-08-30T10:27:35;15.00;99.90
43858;DHT22;29507;51.284;5.758;2023-08-30T10:30:04;15.00;99.90
43858;DHT22;29507;51.284;5.758;2023-08-30T10:32:31;15.10;99.90
43858;DHT22;29507;51.284;5.758;2023-08-30T10:35:01;15.20;99.90
43858;DHT22;29507;51.284;5.758;2023-08-30T10:37:27;15.40;99.90
43858;DHT22;29507;51.284;5.758;2023-08-30T10:39:58;15.60;99.90
43858;DHT22;29507;51.284;5.758;2023-08-30T10:42:24;16.00;99.90
43858;DHT22;29507;51.284;5.758;2023-08-30T10:45:09;16.30;99.90
43858;DHT22;29507;51.284;5.758;2023-08-30T10:47:36;16.70;99.90
43858;DHT22;29507;51.284;5.758;2023-08-30T10:50:11;17.10;99.90
43858;DHT22;29507;51.284;5.758;2023-08-30T10:52:37;17.60;99.90
43858;DHT22;29507;51.284;5.758;2023-08-30T10:55:09;18.10;99.90
43858;DHT22;29507;51.284;5.758;2023-08-30T10:57:36;18.70;99.90
43858;DHT22;29507;51.284;5.758;2023-08-30T11:00:05;19.30;99.90
43858;DHT22;29507;51.284;5.758;2023-08-30T11:02:36;19.20;99.90
43858;DHT22;29507;51.284;5.758;2023-08-30T11:05:02;18.80;99.90
43858;DHT22;29507;51.284;5.758;2023-08-30T11:07:28;18.40;99.90
43858;DHT22;29507;51.284;5.758;2023-08-30T11:09:55;18.00;99.90
43858;DHT22;29507;51.284;5.758;2023-08-30T11:12:21;17.70;99.90
43858;DHT22;29507;51.284;5.758;2023-08-30T11:14:52;17.40;99.90
43858;DHT22;29507;51.284;5.758;2023-08-30T11:17:17;17.40;99.90
43858;DHT22;29507;51.284;5.758;2023-08-30T11:19:44;17.30;99.90
43858;DHT22;29507;51.284;5.758;2023-08-30T11:22:10;17.10;99.90
43858;DHT22;29507;51.284;5.758;2023-08-30T11:24:36;16.90;99.90
43858;DHT22;29507;51.284;5.758;2023-08-30T11:27:01;16.80;99.90
43858;DHT22;29507;51.284;5.758;2023-08-30T11:29:27;16.80;99.90
43858;DHT22;29507;51.284;5.758;2023-08-30T11:31:53;16.90;99.90
43858;DHT22;29507;51.284;5.758;2023-08-30T11:34:22;17.00;99.90
43858;DHT22;29507;51.284;5.758;2023-08-30T11:36:48;17.30;99.90
43858;DHT22;29507;51.284;5.758;2023-08-30T11:39:18;17.50;99.90
43858;DHT22;29507;51.284;5.758;2023-08-30T11:41:44;17.90;99.90
43858;DHT22;29507;51.284;5.758;2023-08-30T11:44:10;18.00;99.90
43858;DHT22;29507;51.284;5.758;2023-08-30T11:46:36;18.00;99.90
43858;DHT22;29507;51.284;5.758;2023-08-30T11:49:02;18.10;99.90
43858;DHT22;29507;51.284;5.758;2023-08-30T11:51:29;18.00;99.90
43858;DHT22;29507;51.284;5.758;2023-08-30T11:53:58;17.70;99.90
43858;DHT22;29507;51.284;5.758;2023-08-30T11:56:24;17.50;99.90
43858;DHT22;29507;51.284;5.758;2023-08-30T11:58:50;17.30;99.90
43858;DHT22;29507;51.284;5.758;2023-08-30T12:01:18;17.10;99.90
43858;DHT22;29507;51.284;5.758;2023-08-30T12:03:45;16.90;99.90
43858;DHT22;29507;51.284;5.758;2023-08-30T12:06:16;16.70;99.90
43858;DHT22;29507;51.284;5.758;2023-08-30T12:08:42;16.50;99.90
43858;DHT22;29507;51.284;5.758;2023-08-30T12:11:20;16.40;99.90
43858;DHT22;29507;51.284;5.758;2023-08-30T12:13:46;16.40;99.90
43858;DHT22;29507;51.284;5.758;2023-08-30T12:16:19;16.40;99.90
43858;DHT22;29507;51.284;5.758;2023-08-30T12:18:46;16.40;99.90
43858;DHT22;29507;51.284;5.758;2023-08-30T12:21:13;16.60;99.90
43858;DHT22;29507;51.284;5.758;2023-08-30T12:23:39;16.80;99.90
43858;DHT22;29507;51.284;5.758;2023-08-30T12:28:31;17.00;99.90
43858;DHT22;29507;51.284;5.758;2023-08-30T12:30:58;17.10;99.90
43858;DHT22;29507;51.284;5.758;2023-08-30T12:33:24;17.20;99.90
43858;DHT22;29507;51.284;5.758;2023-08-30T12:35:54;17.30;99.90
43858;DHT22;29507;51.284;5.758;2023-08-30T12:38:21;17.50;99.90
43858;DHT22;29507;51.284;5.758;2023-08-30T12:40:47;17.60;99.90
43858;DHT22;29507;51.284;5.758;2023-08-30T12:43:14;17.60;99.90
43858;DHT22;29507;51.284;5.758;2023-08-30T12:45:40;17.60;99.90
43858;DHT22;29507;51.284;5.758;2023-08-30T12:48:08;17.40;99.90
43858;DHT22;29507;51.284;5.758;2023-08-30T12:50:37;17.30;99.90
43858;DHT22;29507;51.284;5.758;2023-08-30T12:53:06;17.00;99.90
43858;DHT22;29507;51.284;5.758;2023-08-30T12:55:32;16.70;99.90
43858;DHT22;29507;51.284;5.758;2023-08-30T12:57:59;16.60;99.90
43858;DHT22;29507;51.284;5.758;2023-08-30T13:00:25;16.60;99.90
43858;DHT22;29507;51.284;5.758;2023-08-30T13:02:51;16.60;99.90
43858;DHT22;29507;51.284;5.758;2023-08-30T13:05:17;16.70;99.90
43858;DHT22;29507;51.284;5.758;2023-08-30T13:07:43;16.80;99.90
43858;DHT22;29507;51.284;5.758;2023-08-30T13:10:09;16.90;99.90
43858;DHT22;29507;51.284;5.758;2023-08-30T13:12:36;17.00;99.90
43858;DHT22;29507;51.284;5.758;2023-08-30T13:15:02;17.00;99.90
43858;DHT22;29507;51.284;5.758;2023-08-30T13:17:28;17.00;99.90
43858;DHT22;29507;51.284;5.758;2023-08-30T13:19:53;17.00;99.90
43858;DHT22;29507;51.284;5.758;2023-08-30T13:22:19;17.00;99.90
43858;DHT22;29507;51.284;5.758;2023-08-30T13:24:45;17.00;99.90
43858;DHT22;29507;51.284;5.758;2023-08-30T13:27:10;16.90;99.90
43858;DHT22;29507;51.284;5.758;2023-08-30T13:29:37;16.90;99.90
43858;DHT22;29507;51.284;5.758;2023-08-30T13:32:02;17.30;99.90
43858;DHT22;29507;51.284;5.758;2023-08-30T13:34:28;17.60;99.90
43858;DHT22;29507;51.284;5.758;2023-08-30T13:36:54;17.70;99.90
43858;DHT22;29507;51.284;5.758;2023-08-30T13:39:20;17.80;99.90
43858;DHT22;29507;51.284;5.758;2023-08-30T13:41:46;17.80;99.90
43858;DHT22;29507;51.284;5.758;2023-08-30T13:44:13;17.80;99.90
43858;DHT22;29507;51.284;5.758;2023-08-30T13:46:38;18.10;99.90
43858;DHT22;29507;51.284;5.758;2023-08-30T13:49:04;18.20;99.90
43858;DHT22;29507;51.284;5.758;2023-08-30T13:51:30;18.30;99.90
43858;DHT22;29507;51.284;5.758;2023-08-30T13:53:56;18.30;99.90
43858;DHT22;29507;51.284;5.758;2023-08-30T13:56:22;18.30;99.90
43858;DHT22;29507;51.284;5.758;2023-08-30T13:58:48;18.40;99.90
43858;DHT22;29507;51.284;5.758;2023-08-30T14:01:14;19.20;99.90
43858;DHT22;29507;51.284;5.758;2023-08-30T14:03:40;19.90;99.90
43858;DHT22;29507;51.284;5.758;2023-08-30T14:06:06;21.20;99.90
43858;DHT22;29507;51.284;5.758;2023-08-30T14:08:31;22.30;99.90
43858;DHT22;29507;51.284;5.758;2023-08-30T14:10:58;22.60;99.90
43858;DHT22;29507;51.284;5.758;2023-08-30T14:13:24;22.90;99.90
43858;DHT22;29507;51.284;5.758;2023-08-30T14:15:49;22.20;99.90
43858;DHT22;29507;51.284;5.758;2023-08-30T14:18:15;22.40;99.90
43858;DHT22;29507;51.284;5.758;2023-08-30T14:20:42;22.90;99.90
43858;DHT22;29507;51.284;5.758;2023-08-30T14:23:08;21.90;99.90
43858;DHT22;29507;51.284;5.758;2023-08-30T14:25:33;21.00;99.90
43858;DHT22;29507;51.284;5.758;2023-08-30T14:27:59;20.50;99.90
43858;DHT22;29507;51.284;5.758;2023-08-30T14:30:26;20.00;99.90
43858;DHT22;29507;51.284;5.758;2023-08-30T14:32:51;19.60;99.90
43858;DHT22;29507;51.284;5.758;2023-08-30T14:35:18;19.30;99.90
43858;DHT22;29507;51.284;5.758;2023-08-30T14:37:46;19.20;99.90
43858;DHT22;29507;51.284;5.758;2023-08-30T14:40:13;19.20;99.90
43858;DHT22;29507;51.284;5.758;2023-08-30T14:42:38;20.10;99.90
43858;DHT22;29507;51.284;5.758;2023-08-30T14:45:05;21.00;99.90
43858;DHT22;29507;51.284;5.758;2023-08-30T14:47:32;21.50;99.90
43858;DHT22;29507;51.284;5.758;2023-08-30T14:49:58;21.40;99.90
43858;DHT22;29507;51.284;5.758;2023-08-30T14:52:24;20.90;99.70
43858;DHT22;29507;51.284;5.758;2023-08-30T14:54:50;20.80;99.90
43858;DHT22;29507;51.284;5.758;2023-08-30T14:57:16;20.60;99.90
43858;DHT22;29507;51.284;5.758;2023-08-30T14:59:41;20.30;99.90
43858;DHT22;29507;51.284;5.758;2023-08-30T15:02:07;20.40;99.90
43858;DHT22;29507;51.284;5.758;2023-08-30T15:04:32;20.50;99.90
43858;DHT22;29507;51.284;5.758;2023-08-30T15:06:58;20.40;99.70
43858;DHT22;29507;51.284;5.758;2023-08-30T15:09:23;20.00;99.90
43858;DHT22;29507;51.284;5.758;2023-08-30T15:11:49;19.60;99.90
43858;DHT22;29507;51.284;5.758;2023-08-30T15:14:15;19.30;99.90
43858;DHT22;29507;51.284;5.758;2023-08-30T15:16:40;18.90;99.90
43858;DHT22;29507;51.284;5.758;2023-08-30T15:19:06;18.70;99.90
43858;DHT22;29507;51.284;5.758;2023-08-30T15:21:31;18.60;99.90
43858;DHT22;29507;51.284;5.758;2023-08-30T15:23:57;18.50;99.90
43858;DHT22;29507;51.284;5.758;2023-08-30T15:26:23;18.40;99.90
43858;DHT22;29507;51.284;5.758;2023-08-30T15:28:50;18.60;99.90
43858;DHT22;29507;51.284;5.758;2023-08-30T15:31:16;19.00;99.90
43858;DHT22;29507;51.284;5.758;2023-08-30T15:33:45;19.50;99.90